createdAt,value
2023-05-22T00:02:00.409Z,19.50
2023-05-22T00:05:07.099Z,19.49
2023-05-22T00:08:12.398Z,19.55
2023-05-22T00:11:17.976Z,19.54
2023-05-22T00:14:23.660Z,19.53
2023-05-22T00:17:31.017Z,19.53
2023-05-22T00:20:39.385Z,19.41
2023-05-22T00:23:46.086Z,19.43
2023-05-22T00:26:51.496Z,19.50
2023-05-22T00:29:57.044Z,19.51
2023-05-22T00:33:03.024Z,19.55
2023-05-22T00:36:09.199Z,19.51
2023-05-22T00:39:14.880Z,19.51
2023-05-22T00:42:21.454Z,19.50
2023-05-22T00:45:27.172Z,19.46
2023-05-22T00:48:33.028Z,19.45
2023-05-22T00:51:38.256Z,19.45
2023-05-22T00:54:44.086Z,19.41
2023-05-22T00:57:52.179Z,19.39
2023-05-22T01:00:57.596Z,19.32
2023-05-22T01:04:08.496Z,19.29
2023-05-22T01:07:13.953Z,19.18
2023-05-22T01:10:19.827Z,19.16
2023-05-22T01:14:01.408Z,19.15
2023-05-22T01:17:35.071Z,19.13
2023-05-22T01:20:53.186Z,19.10
2023-05-22T01:24:22.622Z,19.06
2023-05-22T01:28:03.335Z,19.15
2023-05-22T01:31:16.143Z,19.18
2023-05-22T01:34:22.161Z,19.24
2023-05-22T01:37:28.431Z,19.26
2023-05-22T01:40:34.703Z,19.22
2023-05-22T01:43:42.832Z,19.17
2023-05-22T01:46:48.336Z,19.16
2023-05-22T01:49:54.015Z,19.17
2023-05-22T01:53:20.438Z,19.17
2023-05-22T01:56:41.585Z,19.17
2023-05-22T01:59:58.932Z,19.11
2023-05-22T02:03:10.545Z,19.08
2023-05-22T02:06:16.386Z,19.01
2023-05-22T02:09:25.619Z,19.03
2023-05-22T02:12:31.761Z,19.05
2023-05-22T02:15:37.226Z,19.03
2023-05-22T02:18:43.316Z,18.99
2023-05-22T02:21:49.253Z,18.93
2023-05-22T02:24:55.280Z,18.87
2023-05-22T02:28:01.525Z,18.71
2023-05-22T02:31:07.186Z,18.76
2023-05-22T02:34:12.765Z,18.75
2023-05-22T02:37:18.038Z,18.71
2023-05-22T02:40:23.213Z,18.66
2023-05-22T02:43:28.808Z,18.61
2023-05-22T02:46:34.878Z,18.49
2023-05-22T02:49:40.901Z,18.49
2023-05-22T02:52:46.502Z,18.47
2023-05-22T02:55:53.520Z,18.38
2023-05-22T02:58:59.980Z,18.31
2023-05-22T03:02:06.201Z,18.30
2023-05-22T03:05:11.305Z,18.18
2023-05-22T03:08:17.026Z,17.93
2023-05-22T03:11:22.384Z,17.95
2023-05-22T03:14:29.421Z,17.91
2023-05-22T03:17:34.959Z,17.81
2023-05-22T03:20:40.938Z,17.71
2023-05-22T03:23:47.569Z,17.56
2023-05-22T03:26:53.265Z,17.66
2023-05-22T03:30:09.185Z,17.67
2023-05-22T03:33:16.942Z,17.59
2023-05-22T03:36:23.305Z,17.51
2023-05-22T03:39:28.578Z,17.46
2023-05-22T03:42:42.155Z,17.28
2023-05-22T03:45:47.645Z,17.36
2023-05-22T03:48:52.938Z,17.39
2023-05-22T03:51:58.698Z,17.46
2023-05-22T03:55:04.805Z,17.45
2023-05-22T03:58:10.439Z,17.43
2023-05-22T04:01:18.233Z,17.50
2023-05-22T04:04:27.088Z,17.21
2023-05-22T04:07:32.950Z,17.13
2023-05-22T04:10:39.164Z,17.26
2023-05-22T04:13:45.271Z,17.42
2023-05-22T04:16:50.759Z,17.33
2023-05-22T04:19:58.578Z,17.39
2023-05-22T04:23:05.295Z,17.35
2023-05-22T04:26:11.175Z,17.28
2023-05-22T04:29:16.728Z,17.30
2023-05-22T04:32:23.909Z,17.39
2023-05-22T04:35:29.789Z,17.42
2023-05-22T04:38:37.838Z,17.39
2023-05-22T04:41:43.235Z,17.56
2023-05-22T04:44:48.790Z,17.71
2023-05-22T04:47:55.051Z,17.80
2023-05-22T04:51:02.855Z,18.08
2023-05-22T04:54:08.822Z,17.99
2023-05-22T04:57:14.280Z,17.55
2023-05-22T05:00:20.905Z,17.84
2023-05-22T05:03:27.353Z,18.27
2023-05-22T05:06:32.608Z,18.23
2023-05-22T05:09:37.930Z,18.54
2023-05-22T05:12:44.034Z,18.93
2023-05-22T05:15:49.652Z,19.11
2023-05-22T05:18:55.858Z,19.37
2023-05-22T05:22:01.721Z,19.51
2023-05-22T05:25:10.937Z,19.76
2023-05-22T05:28:18.230Z,19.79
2023-05-22T05:31:24.060Z,19.70
2023-05-22T05:34:52.056Z,19.80
2023-05-22T05:38:02.075Z,19.83
2023-05-22T05:41:08.926Z,20.04
2023-05-22T05:44:15.972Z,20.01
2023-05-22T05:47:24.352Z,20.12
2023-05-22T05:50:29.997Z,20.18
2023-05-22T05:53:37.284Z,20.46
2023-05-22T05:56:43.432Z,20.51
2023-05-22T05:59:49.412Z,20.76
2023-05-22T06:03:13.889Z,20.94
2023-05-22T06:06:36.662Z,21.05
2023-05-22T06:10:09.767Z,21.18
2023-05-22T06:13:44.373Z,21.26
2023-05-22T06:16:49.501Z,21.41
2023-05-22T06:19:56.834Z,21.59
2023-05-22T06:23:01.926Z,21.51
2023-05-22T06:26:08.262Z,21.76
2023-05-22T06:29:17.035Z,21.99
2023-05-22T06:32:25.083Z,21.98
2023-05-22T06:35:32.843Z,22.18
2023-05-22T06:38:38.237Z,22.21
2023-05-22T06:41:46.809Z,22.38
2023-05-22T06:44:53.486Z,22.09
2023-05-22T06:48:01.594Z,22.25
2023-05-22T06:51:11.878Z,22.14
2023-05-22T06:54:21.498Z,22.43
2023-05-22T06:57:34.328Z,22.40
2023-05-22T07:00:42.730Z,22.69
2023-05-22T07:04:05.434Z,22.40
2023-05-22T07:07:15.621Z,22.33
2023-05-22T07:10:21.572Z,22.55
2023-05-22T07:13:27.084Z,22.67
2023-05-22T07:16:33.157Z,22.81
2023-05-22T07:19:40.097Z,22.80
2023-05-22T07:22:46.059Z,22.55
2023-05-22T07:25:51.741Z,22.70
2023-05-22T07:29:00.224Z,22.95
2023-05-22T07:32:06.706Z,23.00
2023-05-22T07:35:13.894Z,22.91
2023-05-22T07:38:19.365Z,23.16
2023-05-22T07:41:34.751Z,23.12
2023-05-22T07:44:40.763Z,23.46
2023-05-22T07:47:46.320Z,23.39
2023-05-22T07:50:51.818Z,23.53
2023-05-22T07:57:08.308Z,23.48
2023-05-22T08:00:18.230Z,23.59
2023-05-22T08:03:24.518Z,23.93
2023-05-22T08:06:31.192Z,23.56
2023-05-22T08:09:36.566Z,23.84
2023-05-22T08:12:42.212Z,23.95
2023-05-22T08:15:47.260Z,24.06
2023-05-22T08:18:52.549Z,24.02
2023-05-22T08:21:58.513Z,24.32
2023-05-22T08:25:04.104Z,24.31
2023-05-22T08:28:09.893Z,24.25
2023-05-22T08:31:15.265Z,24.43
2023-05-22T08:34:20.768Z,24.56
2023-05-22T08:37:26.437Z,24.33
2023-05-22T08:40:38.168Z,24.45
2023-05-22T08:43:43.903Z,24.54
2023-05-22T08:46:52.041Z,24.40
2023-05-22T08:49:59.471Z,24.60
2023-05-22T08:53:07.435Z,24.61
2023-05-22T08:56:13.237Z,24.54
2023-05-22T08:59:19.840Z,24.71
2023-05-22T09:02:26.462Z,24.81
2023-05-22T09:05:31.892Z,24.85
2023-05-22T09:08:39.194Z,24.79
2023-05-22T09:11:44.783Z,24.71
2023-05-22T09:14:50.774Z,24.94
2023-05-22T09:17:57.066Z,25.05
2023-05-22T09:21:08.925Z,24.82
2023-05-22T09:24:20.946Z,25.01
2023-05-22T09:27:26.404Z,24.89
2023-05-22T09:30:36.535Z,25.22
2023-05-22T09:33:44.778Z,25.25
2023-05-22T09:36:51.570Z,25.30
2023-05-22T09:39:56.900Z,25.24
2023-05-22T09:43:07.117Z,25.30
2023-05-22T09:46:16.878Z,25.37
2023-05-22T09:49:22.528Z,25.29
2023-05-22T09:52:35.207Z,25.31
2023-05-22T09:55:40.987Z,25.47
2023-05-22T09:58:48.057Z,25.40
2023-05-22T10:01:54.475Z,25.34
2023-05-22T10:05:01.450Z,25.36
2023-05-22T10:08:14.428Z,25.69
2023-05-22T10:11:20.077Z,25.83
2023-05-22T10:14:26.999Z,25.43
2023-05-22T10:17:34.732Z,25.47
2023-05-22T10:20:41.620Z,25.50
2023-05-22T10:23:48.140Z,25.80
2023-05-22T10:26:54.716Z,25.91
2023-05-22T10:30:24.905Z,26.00
2023-05-22T10:34:10.899Z,25.69
2023-05-22T10:37:57.949Z,25.67
2023-05-22T10:41:04.842Z,25.70
2023-05-22T10:44:28.330Z,25.81
2023-05-22T10:47:34.633Z,25.86
2023-05-22T10:50:59.859Z,26.01
2023-05-22T10:54:05.908Z,26.12
2023-05-22T10:57:34.896Z,26.00
2023-05-22T11:00:40.132Z,25.95
2023-05-22T11:04:12.920Z,26.18
2023-05-22T11:07:21.864Z,25.72
2023-05-22T11:10:56.448Z,26.30
2023-05-22T11:14:05.690Z,26.18
2023-05-22T11:17:31.135Z,26.05
2023-05-22T11:20:38.253Z,25.90
2023-05-22T11:24:02.271Z,26.20
2023-05-22T11:27:08.417Z,26.07
2023-05-22T11:30:33.222Z,26.16
2023-05-22T11:33:39.393Z,26.37
2023-05-22T11:36:45.122Z,26.09
2023-05-22T11:40:06.571Z,26.43
2023-05-22T11:43:12.344Z,26.49
2023-05-22T11:46:18.375Z,26.37
2023-05-22T11:49:26.912Z,26.40
2023-05-22T11:52:36.944Z,26.38
2023-05-22T11:55:43.476Z,26.54
2023-05-22T11:58:50.149Z,26.56
2023-05-22T12:01:55.970Z,26.53
2023-05-22T12:05:01.363Z,26.17
2023-05-22T12:08:06.924Z,26.36
2023-05-22T12:11:13.016Z,26.32
2023-05-22T12:14:18.756Z,26.38
2023-05-22T12:17:24.558Z,26.71
2023-05-22T12:20:31.308Z,26.67
2023-05-22T12:23:37.429Z,26.78
2023-05-22T12:26:50.592Z,26.67
2023-05-22T12:29:56.821Z,26.66
2023-05-22T12:33:02.488Z,26.89
2023-05-22T12:36:08.613Z,26.98
2023-05-22T12:39:18.463Z,26.89
2023-05-22T12:42:26.484Z,26.48
2023-05-22T12:45:31.777Z,26.44
2023-05-22T12:48:37.375Z,26.73
2023-05-22T12:51:43.109Z,26.55
2023-05-22T12:54:48.694Z,26.84
2023-05-22T12:57:54.235Z,26.99
2023-05-22T13:00:59.994Z,26.98
2023-05-22T13:04:05.273Z,27.08
2023-05-22T13:07:10.906Z,26.84
2023-05-22T13:10:16.678Z,26.58
2023-05-22T13:13:22.304Z,26.79
2023-05-22T13:16:28.096Z,27.13
2023-05-22T13:19:33.815Z,27.00
2023-05-22T13:22:39.159Z,26.72
2023-05-22T13:25:44.597Z,26.84
2023-05-22T13:28:50.409Z,27.27
2023-05-22T13:31:56.139Z,27.24
2023-05-22T13:35:01.720Z,26.86
2023-05-22T13:38:07.467Z,26.86
2023-05-22T13:41:13.119Z,27.14
2023-05-22T13:44:19.275Z,27.16
2023-05-22T13:47:26.373Z,27.12
2023-05-22T13:50:32.412Z,27.05
2023-05-22T13:53:38.737Z,26.95
2023-05-22T13:56:44.643Z,26.90
2023-05-22T13:59:49.636Z,26.96
2023-05-22T14:02:54.810Z,26.78
2023-05-22T14:06:00.158Z,26.85
2023-05-22T14:09:07.550Z,26.81
2023-05-22T14:12:13.169Z,27.21
2023-05-22T14:15:18.976Z,27.15
2023-05-22T14:18:24.423Z,27.00
2023-05-22T14:21:31.170Z,26.94
2023-05-22T14:24:36.663Z,27.03
2023-05-22T14:27:42.312Z,26.68
2023-05-22T14:30:47.828Z,27.18
2023-05-22T14:33:53.088Z,27.31
2023-05-22T14:36:58.731Z,27.08
2023-05-22T14:40:05.306Z,27.29
2023-05-22T14:43:10.805Z,27.22
2023-05-22T14:46:16.573Z,27.29
2023-05-22T14:49:22.326Z,27.16
2023-05-22T14:52:28.383Z,27.11
2023-05-22T14:55:34.133Z,27.07
2023-05-22T14:58:40.067Z,26.98
2023-05-22T15:01:50.467Z,27.08
2023-05-22T15:04:56.245Z,27.22
2023-05-22T15:08:01.247Z,27.44
2023-05-22T15:11:06.580Z,27.49
2023-05-22T15:14:12.156Z,27.56
2023-05-22T15:17:17.996Z,27.66
2023-05-22T15:20:23.546Z,27.62
2023-05-22T15:23:29.257Z,27.65
2023-05-22T15:26:35.012Z,27.75
2023-05-22T15:29:40.360Z,27.60
2023-05-22T15:32:45.949Z,27.56
2023-05-22T15:35:52.159Z,27.51
2023-05-22T15:38:57.489Z,27.59
2023-05-22T15:42:06.867Z,27.57
2023-05-22T15:45:12.567Z,27.37
2023-05-22T15:48:18.169Z,27.38
2023-05-22T15:51:24.021Z,27.41
2023-05-22T15:54:29.541Z,27.51
2023-05-22T15:57:34.639Z,27.57
2023-05-22T16:00:41.524Z,27.34
2023-05-22T16:03:47.333Z,27.46
2023-05-22T16:06:53.159Z,27.45
2023-05-22T16:09:58.769Z,27.25
2023-05-22T16:13:05.681Z,27.23
2023-05-22T16:16:11.203Z,27.14
2023-05-22T16:19:16.503Z,27.23
2023-05-22T19:47:13.950Z,22.37
2023-05-22T19:50:19.241Z,22.16
2023-05-22T19:53:24.638Z,22.18
2023-05-22T19:56:30.501Z,22.01
2023-05-22T19:59:36.946Z,21.94
2023-05-22T20:02:42.757Z,21.93
2023-05-22T20:05:48.691Z,21.95
2023-05-22T20:08:54.423Z,21.84
2023-05-22T20:11:59.950Z,21.96
2023-05-22T20:15:07.153Z,21.81
2023-05-22T20:18:12.777Z,21.75
2023-05-22T20:21:18.395Z,21.67
2023-05-22T20:24:27.191Z,21.62
2023-05-22T20:27:32.503Z,21.69
2023-05-22T20:30:37.890Z,21.69
2023-05-22T20:33:43.498Z,21.71
2023-05-22T20:36:49.499Z,21.67
2023-05-22T20:39:55.332Z,21.58
2023-05-22T20:43:02.922Z,21.72
2023-05-22T20:46:08.285Z,21.61
2023-05-22T20:49:13.766Z,21.48
2023-05-22T20:52:20.068Z,21.42
2023-05-22T20:55:25.800Z,21.30
2023-05-22T20:58:31.587Z,21.24
2023-05-22T21:01:37.002Z,21.28
2023-05-22T21:04:42.599Z,20.97
2023-05-22T21:07:48.317Z,20.42
2023-05-22T21:10:54.620Z,20.53
2023-05-22T21:14:00.130Z,20.65
2023-05-22T21:17:05.790Z,20.70
2023-05-22T21:20:11.958Z,20.60
2023-05-22T21:23:17.320Z,20.70
2023-05-22T21:26:23.312Z,20.59
2023-05-22T21:29:28.880Z,20.53
2023-05-22T21:32:34.762Z,20.58
2023-05-22T21:35:40.199Z,20.61
2023-05-22T21:38:46.749Z,20.59
2023-05-22T21:41:53.161Z,20.68
2023-05-22T21:44:58.985Z,20.56
2023-05-22T21:48:05.193Z,20.44
2023-05-22T21:51:10.834Z,20.56
2023-05-22T21:54:16.354Z,20.52
2023-05-22T21:57:22.052Z,20.52
2023-05-22T22:00:28.846Z,20.42
2023-05-22T22:03:34.773Z,20.46
2023-05-22T22:06:40.263Z,20.48
2023-05-22T22:09:46.016Z,20.31
2023-05-22T22:12:51.402Z,20.21
2023-05-22T22:15:57.348Z,20.15
2023-05-22T22:19:03.342Z,19.98
2023-05-22T22:22:09.342Z,20.00
2023-05-22T22:25:14.658Z,19.85
2023-05-22T22:28:19.951Z,19.79
2023-05-22T22:31:26.504Z,20.09
2023-05-22T22:34:31.861Z,19.94
2023-05-22T22:37:37.887Z,19.91
2023-05-22T22:40:43.635Z,19.88
2023-05-22T22:43:48.970Z,19.85
2023-05-22T22:46:55.999Z,19.97
2023-05-22T22:50:01.226Z,19.85
2023-05-22T22:53:06.704Z,19.81
2023-05-22T22:56:12.480Z,19.83
2023-05-22T22:59:18.189Z,19.86
2023-05-22T23:02:23.882Z,19.81
2023-05-22T23:05:29.621Z,19.82
2023-05-22T23:08:35.261Z,19.69
2023-05-22T23:11:40.764Z,19.61
2023-05-22T23:14:46.253Z,19.63
2023-05-22T23:17:52.119Z,19.48
2023-05-22T23:20:57.249Z,19.41
2023-05-22T23:24:07.335Z,19.41
2023-05-22T23:27:12.705Z,19.40
2023-05-22T23:30:18.356Z,19.41
2023-05-22T23:33:23.926Z,19.18
2023-05-22T23:36:29.767Z,19.16
2023-05-22T23:39:35.593Z,19.03
2023-05-22T23:42:41.603Z,19.14
2023-05-22T23:45:47.124Z,19.22
2023-05-22T23:48:52.609Z,19.07
2023-05-22T23:51:58.016Z,18.97
2023-05-22T23:55:03.677Z,18.91
2023-05-22T23:58:09.661Z,18.91
